Aeroporto :
LOGIN :

Iscrizione | Disclaimer

   EN    FR    IT 

 










Sommario :    VFR   VFR Marginale   IFR   IFR Intensivo   IFR Molto Intensivo
Visibilità : 
Base nubi : 
>= 8 km
>= 3000ft
5 / 8 km
1000 / 3000 ft
1500m / 5 km
500 / 1000 ft
800 / 1500m
200 / 500 ft
< 800m
< 200 ft
Simboli :   Temporali  Nebbia  Neve Forte  Precipitazioni Forti  Vento > 20 kt
SIGMETs :   Varie  Temporali  Ghiacco  Turbolenza  Onda orograficha  Ceneri Vulcaniche







- Altitudine del aeroporto : 602 ft
- Codice IATA : NVS
- Carte del aeroporto


LFQG - Nevers

ULTIMO METAR :
  • 231600Z AUTO 24016KT 200V270 9999 BKN024 BKN029 OVC034 23/17 Q1017

METARs OBSOLETI :
  • 231530Z AUTO 24013KT 210V270 9999 OVC027 23/17 Q1017
  • 231500Z AUTO 24017G27KT 200V270 9999 BKN029 OVC036 23/17 Q1017
  • 231430Z AUTO 23012KT 200V270 9999 BKN035 OVC048 24/17 Q1017
  • 231400Z AUTO 23014G25KT 180V270 9999 FEW034 OVC049 25/17 Q1017
  • 231330Z AUTO 24013KT 190V270 9999 SCT033 SCT039 OVC048 25/17 Q1017

TAF N/A
Nessun NOTAM noto per questo aeroporto.
2 SIGMETs conosciuti per la FIR Paris (LFFF) :
 
Temporali affogati
LFFF SIGMET 4 VALID 231500/231700 LFPW
LFFF PARIS FIR/UIR EMBD TS OBS WI N4845 E00515 - N4830 E00530 - N4815 E00515 - N4800 E00500 - N4830 E00430 - N4845 E00515 TOP FL390 MOV E 30KT NC=
Turbolenza severa
LFFF SIGMET 2 VALID 231200/231600 LFPW
LFFF PARIS FIR/UIR SEV TURB FCST WI N5030 E00345 - N4930 E00600 - N4900 E00500 - N4945 E00300 - N5030 E00345 SFC/FL050 STNR NC=



MetMap, La meteo Aeronautica in un colpo d'occhio ! - Copyright ORBIFLY Dicembre 2007 - Disclaimer

ORBIFLY MET'MAP TEAM :

Programmazione e sviluppo : Alexandra Zaïnal
Concezione e sviluppo : Baudouin d'Aumeries
Co-Programmazione e sviluppo : Marc-Olivier Méhu
Supporto tecnico e logistico : Manuel Goepfert
Aiuto per la traduzione : Arnaldo La Scala

Contatto : metmap@orbifly.com




FONTI E CREDITI :

   NOAA